createdAt,value
2017-11-20T07:46:23.865Z,12.27
2017-11-20T07:48:55.744Z,14.90
2017-11-20T07:51:28.396Z,11.60
2017-11-20T07:54:00.285Z,13.57
2017-11-20T07:56:32.912Z,9.63
2017-11-20T07:59:04.835Z,18.43
2017-11-20T08:01:37.461Z,13.00
2017-11-20T08:04:09.356Z,16.43
2017-11-20T08:06:41.223Z,12.57
2017-11-20T08:09:13.889Z,10.83
2017-11-20T08:11:46.798Z,11.27
2017-11-20T08:14:18.704Z,10.30
2017-11-20T08:16:50.581Z,10.53
2017-11-20T08:19:22.501Z,9.63
2017-11-20T08:21:54.370Z,6.23
2017-11-20T08:24:26.298Z,11.13
2017-11-20T08:26:58.190Z,12.63
2017-11-20T08:29:30.065Z,10.97
2017-11-20T08:32:01.937Z,19.20
2017-11-20T08:34:33.870Z,18.43
2017-11-20T08:37:05.765Z,15.63
2017-11-20T08:39:37.664Z,14.20
2017-11-20T08:42:10.344Z,17.47
2017-11-20T08:44:43.008Z,15.77
2017-11-20T08:47:15.649Z,16.03
2017-11-20T08:49:48.324Z,13.83
2017-11-20T08:52:20.220Z,15.10
2017-11-20T08:54:52.894Z,12.23
2017-11-20T08:57:24.765Z,14.20
2017-11-20T08:59:57.437Z,12.57
2017-11-20T09:02:30.069Z,14.30
2017-11-20T09:05:01.977Z,13.43
2017-11-20T09:07:33.841Z,12.37
2017-11-20T09:10:06.505Z,5.47
2017-11-20T09:12:38.374Z,10.67
2017-11-20T09:15:11.053Z,9.13
2017-11-20T09:17:43.243Z,14.73
2017-11-20T09:20:15.137Z,10.30
2017-11-20T09:22:47.006Z,9.10
2017-11-20T09:25:18.916Z,10.47
2017-11-20T09:27:51.598Z,13.00
2017-11-20T09:30:24.254Z,12.50
2017-11-20T09:32:56.131Z,8.43
2017-11-20T09:35:28.808Z,11.63
2017-11-20T09:38:01.454Z,9.97
2017-11-20T09:40:33.383Z,7.23
2017-11-20T09:43:05.258Z,6.80
2017-11-20T09:45:37.160Z,6.07
2017-11-20T09:48:09.792Z,6.77
2017-11-20T09:50:41.680Z,8.03
2017-11-20T09:53:14.437Z,6.33
2017-11-20T09:55:46.344Z,8.27
2017-11-20T09:58:18.973Z,8.07
2017-11-20T10:00:50.881Z,6.43
2017-11-20T10:03:23.539Z,10.03
2017-11-20T10:05:55.443Z,4.37
2017-11-20T10:08:27.310Z,10.07
2017-11-20T10:10:59.199Z,9.57
2017-11-20T10:13:31.065Z,4.23
2017-11-20T10:16:02.965Z,6.77
2017-11-20T10:18:34.849Z,9.80
2017-11-20T10:21:06.846Z,5.17
2017-11-20T10:23:38.727Z,11.00
2017-11-20T10:26:10.615Z,9.27
2017-11-20T10:28:42.482Z,8.57
2017-11-20T10:31:14.385Z,5.60
2017-11-20T10:33:46.253Z,7.77
2017-11-20T10:36:18.170Z,6.47
2017-11-20T10:38:50.028Z,5.70
2017-11-20T10:41:21.919Z,7.93
2017-11-20T10:43:53.785Z,8.67
2017-11-20T10:46:25.694Z,11.93
2017-11-20T10:48:57.569Z,5.40
2017-11-20T10:51:29.473Z,7.83
2017-11-20T10:54:02.118Z,7.17
2017-11-20T10:56:34.029Z,11.50
2017-11-20T10:59:05.921Z,7.20
2017-11-20T11:01:37.830Z,8.60
2017-11-20T11:04:09.711Z,9.27
2017-11-20T11:06:41.616Z,9.73
2017-11-20T11:09:13.482Z,7.53
2017-11-20T11:11:45.401Z,12.17
2017-11-20T11:14:18.035Z,8.73
2017-11-20T11:16:49.929Z,8.93
2017-11-20T11:19:21.801Z,9.67
2017-11-20T11:21:54.450Z,5.70
2017-11-20T11:24:26.352Z,13.27
2017-11-20T11:26:59.052Z,13.77
2017-11-20T11:29:30.921Z,7.67
2017-11-20T11:32:02.825Z,11.37
2017-11-20T11:34:34.697Z,15.37
2017-11-20T11:37:07.373Z,8.67
2017-11-20T11:39:40.010Z,10.20
2017-11-20T11:42:11.965Z,9.97
2017-11-20T11:44:43.825Z,14.53
2017-11-20T11:47:15.745Z,13.97
2017-11-20T11:49:48.393Z,10.80
2017-11-20T11:52:20.300Z,11.53
2017-11-20T11:54:52.169Z,15.67
2017-11-20T11:57:24.080Z,14.67
2017-11-20T11:59:55.954Z,14.43
2017-11-20T12:02:28.660Z,13.33
2017-11-20T12:05:00.531Z,14.90
2017-11-20T12:07:32.417Z,22.67
2017-11-20T12:10:04.289Z,15.13
2017-11-20T12:12:36.173Z,18.13
2017-11-20T12:15:08.043Z,19.47
2017-11-20T12:17:40.713Z,16.07
2017-11-20T12:20:13.349Z,21.73
2017-11-20T12:22:45.259Z,19.70
2017-11-20T12:25:17.895Z,18.33
2017-11-20T12:27:49.801Z,19.10
2017-11-20T12:30:22.442Z,20.40
2017-11-20T12:32:54.346Z,18.60
2017-11-20T12:35:27.001Z,18.30
2017-11-20T12:37:58.905Z,24.20
2017-11-20T12:40:30.793Z,14.73
2017-11-20T12:43:02.696Z,20.90
2017-11-20T12:45:35.341Z,21.37
2017-11-20T12:48:07.240Z,20.83
2017-11-20T12:50:39.890Z,18.00
2017-11-20T12:53:11.797Z,21.63
2017-11-20T12:55:43.670Z,18.00
2017-11-20T12:58:15.593Z,18.00
2017-11-20T13:00:48.240Z,20.40
2017-11-20T13:03:20.150Z,17.63
2017-11-20T13:05:52.050Z,21.50
2017-11-20T13:08:23.957Z,18.33
2017-11-20T13:10:56.601Z,17.80
2017-11-20T13:13:28.514Z,15.73
2017-11-20T13:16:00.385Z,19.43
2017-11-20T13:18:32.277Z,21.73
2017-11-20T13:21:04.155Z,26.83
2017-11-20T13:23:36.061Z,20.13
2017-11-20T13:26:07.972Z,15.37
2017-11-20T13:28:39.874Z,20.50
2017-11-20T13:31:11.752Z,19.83
2017-11-20T13:33:43.665Z,21.10
2017-11-20T13:36:16.300Z,22.47
2017-11-20T13:38:48.200Z,19.47
2017-11-20T13:41:20.071Z,24.43
2017-11-20T13:43:52.753Z,22.60
2017-11-20T13:46:25.402Z,25.33
2017-11-20T13:48:57.308Z,22.33
2017-11-20T13:51:29.218Z,23.63
2017-11-20T13:54:01.192Z,27.63
2017-11-20T13:56:33.092Z,19.63
2017-11-20T13:59:04.995Z,24.03
2017-11-20T14:01:37.659Z,25.93
2017-11-20T14:04:09.571Z,23.27
2017-11-20T14:06:42.233Z,24.13
2017-11-20T14:09:14.169Z,22.43
2017-11-20T14:11:46.048Z,20.37
2017-11-20T14:14:17.937Z,24.50
2017-11-20T14:16:50.577Z,21.87
2017-11-20T14:19:22.490Z,26.47
2017-11-20T14:21:54.357Z,23.67
2017-11-20T14:24:26.264Z,22.27
2017-11-20T14:26:58.169Z,24.43
2017-11-20T14:29:30.086Z,24.07
2017-11-20T14:32:01.960Z,25.90
2017-11-20T14:34:33.893Z,24.70
2017-11-20T14:37:05.769Z,24.17
2017-11-20T14:39:37.673Z,24.13
2017-11-20T14:42:09.549Z,25.30
2017-11-20T14:44:41.452Z,24.93
2017-11-20T14:47:13.740Z,22.13
2017-11-20T14:49:46.427Z,22.67
2017-11-20T14:55:19.517Z,26.33
2017-11-20T14:57:51.385Z,19.60
2017-11-20T15:00:23.372Z,23.40
2017-11-20T15:02:55.253Z,20.90
2017-11-20T15:05:27.161Z,26.33
2017-11-20T15:07:59.029Z,22.47
2017-11-20T15:10:30.944Z,25.77
2017-11-20T15:13:03.613Z,23.10
2017-11-20T15:15:35.531Z,18.27
2017-11-20T15:18:08.175Z,24.93
2017-11-20T15:20:40.085Z,23.23
2017-11-20T15:23:11.979Z,22.10
2017-11-20T15:25:43.889Z,19.13
2017-11-20T15:28:15.762Z,17.17
2017-11-20T15:30:48.428Z,19.97
2017-11-20T15:33:20.293Z,21.23
2017-11-20T15:35:52.987Z,21.93
2017-11-20T15:38:24.853Z,18.50
2017-11-20T15:40:56.760Z,20.10
2017-11-20T15:43:28.634Z,20.43
2017-11-20T15:46:00.533Z,16.87
2017-11-20T15:48:32.407Z,17.57
2017-11-20T15:51:04.293Z,17.23
2017-11-20T15:53:36.162Z,17.40
2017-11-20T15:56:08.070Z,18.93
2017-11-20T15:58:39.957Z,19.53
2017-11-20T16:01:11.868Z,18.43
2017-11-20T16:03:43.753Z,15.67
2017-11-20T16:06:15.668Z,18.83
2017-11-20T16:08:47.537Z,18.83
2017-11-20T16:11:19.464Z,16.83
2017-11-20T16:13:51.333Z,14.67
2017-11-20T16:16:23.255Z,16.60
2017-11-20T16:18:55.129Z,21.27
2017-11-20T16:21:27.032Z,17.10
2017-11-20T16:23:58.926Z,14.53
2017-11-20T16:26:31.593Z,17.77
2017-11-20T16:29:04.239Z,14.77
2017-11-20T16:31:36.137Z,16.10
2017-11-20T16:34:08.012Z,10.93
2017-11-20T16:36:39.918Z,14.63
2017-11-20T16:39:11.789Z,12.27
2017-11-20T16:41:43.705Z,12.10
2017-11-20T16:44:15.569Z,12.53
2017-11-20T16:46:47.469Z,12.23
2017-11-20T16:49:19.346Z,13.10
2017-11-20T16:51:51.248Z,10.73
2017-11-20T16:54:23.116Z,11.17
2017-11-20T17:00:20.496Z,9.63
2017-11-20T17:03:11.234Z,8.60
2017-11-20T17:05:43.108Z,7.90
2017-11-20T17:08:15.002Z,8.00
2017-11-20T17:10:46.874Z,7.60
2017-11-20T17:13:18.786Z,10.87
2017-11-20T17:15:50.686Z,13.90
2017-11-20T17:18:22.577Z,11.53
2017-11-20T17:20:54.452Z,11.40
2017-11-20T17:23:26.366Z,12.40
2017-11-20T17:25:58.247Z,11.80
2017-11-20T17:28:30.238Z,12.87
2017-11-20T17:31:02.154Z,13.67
2017-11-20T17:33:34.052Z,19.87
2017-11-20T17:36:05.932Z,22.60
2017-11-20T17:38:38.641Z,22.00
2017-11-20T17:41:10.793Z,18.67
2017-11-20T17:43:43.518Z,20.23
2017-11-20T17:46:15.404Z,24.60
2017-11-20T17:48:47.312Z,21.23
2017-11-20T17:51:19.191Z,20.67
2017-11-20T17:53:51.198Z,17.90
2017-11-20T17:56:24.580Z,16.70
2017-11-20T17:58:56.578Z,14.30
2017-11-20T18:01:29.231Z,14.10
2017-11-20T18:04:01.148Z,12.87
2017-11-20T18:06:33.028Z,13.80
2017-11-20T18:09:04.935Z,13.87
2017-11-20T18:11:37.601Z,11.83
2017-11-20T18:14:09.506Z,10.33
2017-11-20T18:16:41.427Z,11.93
2017-11-20T18:19:13.335Z,11.73
2017-11-20T18:21:45.229Z,9.30
2017-11-20T18:24:17.147Z,10.00
2017-11-20T18:26:49.033Z,14.10
2017-11-20T18:29:21.833Z,11.23
2017-11-20T18:31:53.704Z,15.67
2017-11-20T18:34:25.613Z,15.00
2017-11-20T18:36:57.497Z,13.17
2017-11-20T18:39:29.423Z,14.40
2017-11-20T18:42:01.334Z,14.20
2017-11-20T18:44:33.252Z,14.20
2017-11-20T18:47:05.127Z,13.80
2017-11-20T18:49:37.067Z,13.53
2017-11-20T18:52:08.954Z,12.07
2017-11-20T18:54:40.892Z,13.03
2017-11-20T18:57:12.765Z,12.77
2017-11-20T18:59:44.675Z,10.93
2017-11-20T19:02:28.493Z,12.43
2017-11-20T19:05:06.289Z,12.50
2017-11-20T19:07:50.064Z,13.00
2017-11-20T19:10:21.934Z,15.03
2017-11-20T19:12:53.854Z,10.83
2017-11-20T19:15:25.757Z,11.93
2017-11-20T19:17:57.630Z,10.40
2017-11-20T19:20:29.544Z,11.93
2017-11-20T19:23:01.413Z,11.00
2017-11-20T19:25:33.318Z,11.20
2017-11-20T19:28:05.210Z,10.77
2017-11-20T19:30:37.110Z,11.83
2017-11-20T19:33:10.002Z,13.10
2017-11-20T19:35:41.921Z,13.13
2017-11-20T19:38:13.802Z,11.07
2017-11-20T19:40:45.709Z,9.60
2017-11-20T19:43:17.600Z,13.37
2017-11-20T19:45:49.510Z,10.07
2017-11-20T19:48:21.384Z,11.23
2017-11-20T19:50:53.277Z,9.63
2017-11-20T19:53:25.158Z,8.27
2017-11-20T19:55:57.066Z,8.67
2017-11-20T19:58:28.937Z,9.83
2017-11-20T20:01:00.873Z,7.90
2017-11-20T20:03:33.493Z,10.67
2017-11-20T20:06:06.211Z,8.30
2017-11-20T20:08:38.849Z,8.27
2017-11-20T20:11:10.737Z,7.60
2017-11-20T20:13:46.089Z,7.03
2017-11-20T20:16:35.442Z,6.00
2017-11-20T20:19:07.309Z,6.00
2017-11-20T20:21:39.197Z,4.87
2017-11-20T20:24:11.066Z,9.67
2017-11-20T20:26:42.971Z,6.63
2017-11-20T20:29:14.860Z,6.07
2017-11-20T20:31:47.541Z,4.63
2017-11-20T20:34:20.185Z,4.53
2017-11-20T20:36:52.090Z,6.40
2017-11-20T20:39:23.982Z,4.40
2017-11-20T20:41:55.959Z,5.60
2017-11-20T20:44:27.831Z,4.40
2017-11-20T20:47:00.571Z,7.90
2017-11-20T20:49:32.491Z,5.47
2017-11-20T20:52:04.465Z,5.70
2017-11-20T20:54:37.151Z,7.63
2017-11-20T20:57:09.050Z,5.17
2017-11-20T20:59:40.926Z,5.60
2017-11-20T21:02:12.850Z,7.50
2017-11-20T21:04:44.724Z,7.83
2017-11-20T21:07:16.697Z,9.33
2017-11-20T21:09:48.655Z,8.17
2017-11-20T21:12:20.614Z,7.00
2017-11-20T21:14:52.487Z,7.90
2017-11-20T21:17:24.444Z,8.30
2017-11-20T21:19:56.359Z,10.10
2017-11-20T21:22:29.260Z,9.70
2017-11-20T21:25:01.187Z,8.33
2017-11-20T21:27:33.097Z,8.03
2017-11-20T21:30:04.972Z,10.27
2017-11-20T21:32:36.873Z,9.90
2017-11-20T21:35:09.514Z,7.97
2017-11-20T21:37:41.441Z,10.07
2017-11-20T21:40:13.313Z,8.67
2017-11-20T21:42:45.223Z,7.87
2017-11-20T21:45:17.088Z,8.37
2017-11-20T21:47:48.974Z,8.93
2017-11-20T21:50:20.853Z,9.07
2017-11-20T21:52:52.741Z,10.80
2017-11-20T21:55:24.625Z,11.10
2017-11-20T21:57:56.529Z,10.90
2017-11-20T22:00:28.404Z,10.43
2017-11-20T22:03:00.313Z,11.10
2017-11-20T22:05:32.188Z,11.20
2017-11-20T22:08:04.854Z,10.60
2017-11-20T22:10:37.494Z,11.00
2017-11-20T22:13:21.331Z,12.90
2017-11-20T22:15:53.212Z,12.73
2017-11-20T22:18:25.420Z,13.90
2017-11-20T22:20:57.310Z,13.43
2017-11-20T22:23:29.745Z,13.47
2017-11-20T22:26:02.384Z,11.27
2017-11-20T22:28:34.340Z,13.40
2017-11-20T22:31:06.229Z,13.17
2017-11-20T22:33:38.117Z,12.50
2017-11-20T22:36:10.001Z,13.17
2017-11-20T22:38:41.914Z,12.87
2017-11-20T22:41:14.554Z,15.10
2017-11-20T22:43:46.460Z,14.47
2017-11-20T22:46:19.125Z,13.10
2017-11-20T22:48:51.156Z,16.90
2017-11-20T22:51:23.153Z,15.07
2017-11-20T22:53:55.089Z,14.87
2017-11-20T22:56:26.975Z,15.00
2017-11-20T22:58:58.941Z,15.63
2017-11-20T23:01:30.837Z,12.50
2017-11-20T23:04:02.773Z,15.80
2017-11-20T23:06:35.421Z,13.37
2017-11-20T23:09:07.366Z,15.30
2017-11-20T23:11:39.301Z,14.43
2017-11-20T23:14:11.206Z,15.67
2017-11-20T23:16:43.120Z,13.73
2017-11-20T23:19:15.020Z,15.97
2017-11-20T23:21:46.974Z,15.07
2017-11-20T23:24:18.913Z,17.03
2017-11-20T23:26:50.843Z,14.40
2017-11-20T23:29:23.537Z,14.17
2017-11-20T23:31:55.434Z,17.43
2017-11-20T23:34:27.365Z,14.90
2017-11-20T23:36:59.335Z,17.00
2017-11-20T23:39:31.266Z,16.10
2017-11-20T23:42:03.904Z,15.73
2017-11-20T23:44:35.863Z,14.67
2017-11-20T23:47:07.765Z,14.10
2017-11-20T23:49:40.438Z,13.43
2017-11-20T23:52:13.095Z,13.47
2017-11-20T23:54:45.018Z,16.73
2017-11-20T23:57:16.905Z,11.47
2017-11-20T23:59:48.885Z,11.00
